Latest Weather Observations for PORTABLE QFRI (Inglewood)

IDQ60801

Issued at 10:22 pm EST Friday 15 November 2019 (issued every 10 minutes, with the page automatically refreshed every 10 minutes)

About weather observations | Map of weather stations | Latest weather observations for QLD | Other Formats
Station Details ID: 250073 Name: PORTABLE QFRI (INGLEWOOD) Lat: -28.42 Lon: 151.10 Height: 286.0 m
Data from the previous 72 hours. | See also: Recent months for locations in Queensland
Date/Time
EST
Temp
°C
App
Temp
°C
Dew
Point
°C
Rel
Hum
%
Delta-T
°C
Wind Press
QNH
hPa
Press
MSL
hPa
Rain since
9am
mm
Dir  Spd
km/h
Gust
km/h
Spd
kts
Gust
kts
15/10:10pm 18.5 15.8 -5.5 19 9.5 CALM 0 2 0 1 - - 0.0
15/10:00pm 19.3 16.3 -5.3 18 9.8 ENE 2 4 1 2 - - 0.0
15/09:50pm 19.8 16.5 -4.5 19 9.9 ENE 4 6 2 3 - - 0.0
15/09:40pm 19.9 17.2 -2.5 22 9.5 NNW 2 4 1 2 - - 0.0
15/09:30pm 20.1 17.8 -2.6 21 9.7 CALM 0 0 0 0 - - 0.0
15/09:20pm 20.6 18.5 -0.8 24 9.5 CALM 0 0 0 0 - - 0.0
15/09:10pm 21.2 18.8 -3.5 19 10.4 CALM 0 0 0 0 - - 0.0
15/09:00pm 21.8 19.4 -2.9 19 10.6 CALM 0 0 0 0 - - 0.0
15/08:50pm 22.3 19.8 -4.0 17 11.1 CALM 0 0 0 0 - - 0.0
15/08:40pm 22.9 20.5 -3.4 17 11.3 CALM 0 0 0 0 - - 0.0
15/08:30pm 23.8 21.2 -4.7 14 12.1 CALM 0 0 0 0 - - 0.0
15/08:20pm 24.9 22.3 -5.1 13 12.7 CALM 0 0 0 0 - - 0.0
15/08:10pm 26.1 23.0 -6.3 11 13.6 W 2 4 1 2 - - 0.0
15/08:00pm 26.6 23.0 -7.4 10 14.0 W 4 6 2 3 - - 0.0
15/07:50pm 26.0 22.4 -7.0 11 13.6 WSW 4 4 2 2 - - 0.0
15/07:40pm 26.2 22.7 -6.0 11 13.6 SW 4 6 2 3 - - 0.0
15/07:30pm 26.9 23.3 -7.2 10 14.2 WSW 4 4 2 2 - - 0.0
15/07:20pm 27.2 23.3 -7.0 10 14.3 WSW 6 7 3 4 - - 0.0
15/07:10pm 28.0 23.8 -7.4 9 14.8 WSW 7 9 4 5 - - 0.0
15/07:00pm 28.9 24.7 -7.4 9 15.3 W 7 7 4 4 - - 0.0
15/06:50pm 29.5 25.3 -7.9 8 15.7 W 7 9 4 5 - - 0.0
15/06:40pm 29.8 25.2 -7.8 8 15.9 W 9 11 5 6 - - 0.0
15/06:30pm 30.3 25.3 -7.9 8 16.2 WSW 11 15 6 8 - - 0.0
15/06:20pm 30.9 26.3 -8.0 7 16.5 W 9 13 5 7 - - 0.0
15/06:10pm 31.4 26.4 -7.9 7 16.8 W 11 15 6 8 - - 0.0
15/06:00pm 31.7 26.0 -7.8 7 16.9 WSW 15 17 8 9 - - 0.0
15/05:50pm 32.1 26.8 -7.7 7 17.2 WSW 13 19 7 10 - - 0.0
15/05:40pm 32.2 26.5 -7.4 7 17.2 W 15 17 8 9 - - 0.0
15/05:30pm 32.2 26.2 -7.1 7 17.1 WSW 17 26 9 14 - - 0.0
15/05:20pm 32.3 26.6 -7.2 7 17.2 WSW 15 22 8 12 - - 0.0
15/05:10pm 32.3 25.3 -7.1 7 17.2 WSW 22 28 12 15 - - 0.0
15/05:00pm 32.4 25.4 -7.1 7 17.2 SW 22 24 12 13 - - 0.0
15/04:50pm 32.7 26.7 -6.8 7 17.4 WSW 17 26 9 14 - - 0.0
15/04:40pm 32.8 27.6 -6.4 7 17.4 W 13 20 7 11 - - 0.0
15/04:30pm 32.8 25.8 -6.8 7 17.4 WSW 22 30 12 16 - - 0.0
15/04:20pm 32.6 26.5 -7.3 7 17.4 W 17 20 9 11 - - 0.0
15/04:10pm 32.8 26.4 -6.8 7 17.4 W 19 24 10 13 - - 0.0
15/04:00pm 32.9 26.3 -6.8 7 17.5 WSW 20 26 11 14 - - 0.0
15/03:50pm 33.0 26.0 -6.9 7 17.6 W 22 28 12 15 - - 0.0
15/03:40pm 33.1 26.7 -7.0 7 17.6 W 19 22 10 12 - - 0.0
15/03:30pm 33.0 25.6 -7.7 7 17.7 W 24 32 13 17 - - 0.0
15/03:20pm 32.8 26.2 -7.4 7 17.5 SW 20 28 11 15 - - 0.0
15/03:10pm 32.6 25.3 -6.8 7 17.3 WSW 24 32 13 17 - - 0.0
15/03:00pm 32.7 25.0 -7.0 7 17.4 W 26 32 14 17 - - 0.0
15/02:50pm 33.0 25.6 -7.0 7 17.6 WSW 24 30 13 16 - - 0.0
15/02:40pm 32.8 25.1 -6.9 7 17.4 WSW 26 35 14 19 - - 0.0
15/02:30pm 33.2 25.8 -7.7 7 17.8 WSW 24 30 13 16 - - 0.0
15/02:20pm 33.2 25.8 -7.7 7 17.8 W 24 33 13 18 - - 0.0
15/02:10pm 33.0 26.4 -7.1 7 17.6 W 20 26 11 14 - - 0.0
15/02:00pm 32.9 25.5 -7.0 7 17.5 W 24 35 13 19 - - 0.0
15/01:50pm 32.5 25.8 -8.1 7 17.4 W 20 28 11 15 - - 0.0
15/01:40pm 32.5 25.4 -8.0 7 17.4 WSW 22 30 12 16 - - 0.0
15/01:30pm 32.4 24.6 -8.0 7 17.4 W 26 30 14 16 - - 0.0
15/01:20pm 32.4 25.3 -8.3 7 17.4 W 22 30 12 16 - - 0.0
15/01:00pm 32.2 25.5 -8.3 7 17.3 W 20 30 11 16 - - 0.0
15/12:50pm 32.0 24.9 -7.8 7 17.1 W 22 26 12 14 - - 0.0
15/12:40pm 32.1 24.7 -7.8 7 17.2 W 24 35 13 19 - - 0.0
15/12:30pm 32.0 25.4 -7.0 7 17.0 WNW 20 32 11 17 - - 0.0
15/12:20pm 31.6 24.5 -8.1 7 16.9 W 22 26 12 14 - - 0.0
15/12:10pm 31.6 24.1 -8.6 7 17.0 WSW 24 30 13 16 - - 0.0
15/12:00pm 31.3 23.4 -8.7 7 16.8 WSW 26 32 14 17 - - 0.0
15/11:50am 31.5 24.4 -8.0 7 16.9 WSW 22 30 12 16 - - 0.0
15/11:40am 31.2 24.1 -8.0 7 16.7 WSW 22 28 12 15 - - 0.0
15/11:30am 31.1 24.5 -6.9 8 16.5 W 20 28 11 15 - - 0.0
15/11:20am 31.3 26.1 -6.5 8 16.5 W 13 19 7 10 - - 0.0
15/11:10am 30.7 24.2 -6.2 9 16.1 W 20 28 11 15 - - 0.0
15/11:00am 30.4 24.8 -6.4 9 16.0 W 15 20 8 11 - - 0.0
15/10:50am 30.5 24.9 -6.3 9 16.0 W 15 20 8 11 - - 0.0
15/10:40am 30.1 24.1 -6.8 8 15.9 W 17 26 9 14 - - 0.0
15/10:30am 30.1 23.6 -6.4 9 15.8 WSW 20 28 11 15 - - 0.0
15/10:20am 29.8 23.4 -6.6 9 15.7 WSW 19 24 10 13 - - 0.0
15/10:10am 30.0 24.0 -6.8 8 15.8 W 17 24 9 13 - - 0.0
15/10:00am 29.3 24.5 -5.6 10 15.2 WSW 11 15 6 8 - - 0.0
15/09:50am 28.7 25.0 -3.2 12 14.5 S 7 15 4 8 - - 0.0
15/09:40am 28.3 23.9 -2.5 13 14.1 WSW 11 13 6 7 - - 0.0
15/09:30am 28.1 23.3 -2.3 13 13.9 WSW 13 19 7 10 - - 0.0
15/09:20am 28.3 24.3 -2.6 13 14.1 SW 9 13 5 7 - - 0.0
15/09:10am 27.5 22.8 -2.0 14 13.5 SW 13 15 7 8 - - 0.0
15/09:00am 27.5 24.0 -1.5 15 13.4 SW 7 13 4 7 - - 0.0
15/08:50am 27.4 24.6 -0.7 16 13.2 SSW 4 7 2 4 - - 0.0
15/08:40am 27.1 24.6 -0.8 16 13.0 WSW 2 6 1 3 - - 0.0
15/08:30am 27.0 24.6 -0.4 16 12.9 NNW 2 4 1 2 - - 0.0
15/08:20am 26.2 23.8 -0.3 17 12.4 SSW 2 4 1 2 - - 0.0
15/08:10am 24.9 22.8 1.4 21 11.2 WNW 2 2 1 1 - - 0.0
15/08:00am 23.7 21.6 1.9 24 10.4 N 2 6 1 3 - - 0.0
15/07:50am 22.6 20.5 2.0 25 9.8 ENE 2 6 1 3 - - 0.0
15/07:40am 21.7 19.4 2.9 29 9.0 NNE 4 6 2 3 - - 0.0
15/07:30am 20.7 18.5 3.3 31 8.4 NE 4 6 2 3 - - 0.0
15/07:20am 19.7 17.1 3.3 33 7.8 NE 6 7 3 4 - - 0.0
15/07:10am 18.9 16.4 3.7 36 7.3 ENE 6 7 3 4 - - 0.0
15/07:00am 18.2 15.5 3.6 38 6.9 NE 7 7 4 4 - - 0.0
15/06:50am 17.5 14.8 3.7 40 6.5 ENE 7 9 4 5 - - 0.0
15/06:40am 16.8 13.7 1.5 35 6.9 ENE 7 9 4 5 - - 0.0
15/06:30am 16.2 12.8 -0.4 32 7.1 ENE 7 9 4 5 - - 0.0
15/06:20am 15.4 12.1 -0.1 34 6.7 ENE 7 9 4 5 - - 0.0
15/06:10am 14.6 10.6 -2.5 30 6.9 ENE 9 11 5 6 - - 0.0
15/06:00am 13.8 9.8 -5.4 26 7.2 E 7 7 4 4 - - 0.0
15/05:50am 12.9 8.9 -7.3 24 7.2 ENE 6 7 3 4 - - 0.0
15/05:40am 12.1 8.1 -7.7 24 6.9 E 6 6 3 3 - - 0.0
15/05:30am 11.1 7.1 -7.9 25 6.5 ENE 6 6 3 3 - - 0.0
15/05:20am 10.6 6.6 -7.7 27 6.3 ENE 6 7 3 4 - - 0.0
15/05:10am 10.0 5.8 -8.3 26 6.2 ENE 7 9 4 5 - - 0.0
15/05:00am 10.2 5.9 -8.5 26 6.3 ENE 7 7 4 4 - - 0.0
15/04:50am 10.1 5.4 -8.9 25 6.3 E 9 9 5 5 - - 0.0
15/04:40am 10.5 5.8 -8.9 24 6.5 E 9 9 5 5 - - 0.0
15/04:30am 10.9 6.2 -9.2 23 6.7 E 9 9 5 5 - - 0.0
15/04:20am 10.8 6.1 -9.5 23 6.7 E 9 9 5 5 - - 0.0
15/04:10am 10.6 5.5 -9.2 24 6.6 E 11 11 6 6 - - 0.0
15/04:00am 10.7 6.0 -9.5 23 6.7 E 9 9 5 5 - - 0.0
15/03:50am 11.1 6.8 -9.1 23 6.8 E 7 9 4 5 - - 0.0
15/03:40am 11.2 7.5 -8.6 24 6.7 E 4 6 2 3 - - 0.0
15/03:30am 11.2 7.5 -9.1 23 6.8 ENE 4 7 2 4 - - 0.0
15/03:20am 11.0 7.2 -9.9 22 6.9 ENE 4 6 2 3 - - 0.0
15/03:10am 10.5 6.7 -9.7 23 6.6 ENE 4 6 2 3 - - 0.0
15/03:00am 10.5 6.7 -9.5 23 6.6 ENE 4 4 2 2 - - 0.0
15/02:50am 10.6 7.2 -9.6 23 6.6 NNE 2 4 1 2 - - 0.0
15/02:40am 10.5 7.1 -9.3 24 6.5 N 2 4 1 2 - - 0.0
15/02:30am 10.6 6.8 -9.2 24 6.6 N 4 4 2 2 - - 0.0
15/02:20am 10.8 7.4 -9.4 23 6.7 ENE 2 4 1 2 - - 0.0
15/02:10am 11.0 7.2 -9.3 23 6.8 NNE 4 7 2 4 - - 0.0
15/02:00am 11.4 8.7 -6.4 28 6.4 CALM 0 0 0 0 - - 0.0
15/01:50am 11.8 8.0 -5.5 29 6.4 ENE 6 6 3 3 - - 0.0
15/01:40am 12.3 8.5 -5.5 28 6.6 E 6 6 3 3 - - 0.0
15/01:30am 12.2 8.5 -4.9 30 6.4 ESE 6 7 3 4 - - 0.0
15/01:20am 12.2 8.3 -6.2 27 6.7 E 6 6 3 3 - - 0.0
15/01:10am 12.3 8.8 -6.4 26 6.8 E 4 4 2 2 - - 0.0
15/01:00am 12.3 8.6 -8.9 22 7.2 ENE 4 4 2 2 - - 0.0
15/12:50am 12.7 9.3 -5.2 28 6.7 ENE 4 4 2 2 - - 0.0
15/12:40am 13.0 10.1 -8.0 22 7.4 CALM 0 2 0 1 - - 0.0
15/12:30am 13.1 9.7 -9.1 20 7.6 NE 2 2 1 1 - - 0.0
15/12:20am 13.1 10.1 -8.8 21 7.6 CALM 0 0 0 0 - - 0.0
15/12:10am 13.2 10.4 -7.1 23 7.3 CALM 0 4 0 2 - - 0.0
15/12:00am 13.5 9.6 -6.7 24 7.4 E 6 7 3 4 - - 0.0
 
Date/Time
EST
Temp
°C
App
Temp
°C
Dew
Point
°C
Rel
Hum
%
Delta-T
°C
Wind Press
QNH
hPa
Press
MSL
hPa
Rain since
9am
mm
Dir  Spd
km/h
Gust
km/h
Spd
kts
Gust
kts
14/11:50pm 14.2 10.7 -6.3 23 7.6 E 4 6 2 3 - - 0.0
14/11:40pm 14.2 10.8 -4.9 26 7.3 E 4 6 2 3 - - 0.0
14/11:30pm 14.2 10.9 -4.2 27 7.1 ESE 4 6 2 3 - - 0.0
14/11:20pm 14.6 11.0 -3.8 28 7.2 ESE 6 7 3 4 - - 0.0
14/11:10pm 14.8 10.6 -7.3 21 8.1 E 7 7 4 4 - - 0.0
14/11:00pm 14.9 11.0 -6.8 22 8.0 E 6 6 3 3 - - 0.0
14/10:50pm 15.2 11.7 -6.2 22 8.0 E 4 6 2 3 - - 0.0
14/10:40pm 15.6 12.7 -4.5 25 7.9 ENE 2 4 1 2 - - 0.0
14/10:30pm 16.2 13.7 -3.7 25 8.0 CALM 0 0 0 0 - - 0.0
14/10:20pm 16.4 13.7 -5.8 21 8.5 CALM 0 0 0 0 - - 0.0
14/10:10pm 16.5 13.9 -4.5 23 8.3 CALM 0 0 0 0 - - 0.0
14/10:00pm 17.0 14.4 -4.9 22 8.6 CALM 0 0 0 0 - - 0.0
14/09:50pm 17.3 14.6 -6.1 19 9.0 CALM 0 0 0 0 - - 0.0
14/09:40pm 17.7 14.8 -8.1 16 9.6 CALM 0 2 0 1 - - 0.0
14/09:30pm 18.5 15.8 -6.1 18 9.6 CALM 0 0 0 0 - - 0.0
14/09:20pm 19.4 16.5 -7.9 15 10.4 CALM 0 2 0 1 - - 0.0
14/09:10pm 19.7 16.0 -8.6 14 10.6 W 4 6 2 3 - - 0.0
14/09:00pm 19.7 16.7 -8.7 14 10.7 CALM 0 2 0 1 - - 0.0
14/08:50pm 20.3 17.0 -8.6 13 10.9 WNW 2 4 1 2 - - 0.0
14/08:40pm 20.9 17.6 -8.5 13 11.2 W 2 4 1 2 - - 0.0
14/08:30pm 21.7 18.4 -8.5 12 11.6 W 2 4 1 2 - - 0.0
14/08:20pm 21.7 18.0 -8.7 12 11.7 W 4 4 2 2 - - 0.0
14/08:00pm 23.0 19.3 -8.4 11 12.3 W 4 6 2 3 - - 0.0
14/07:50pm 23.9 19.7 -9.8 10 13.0 W 6 6 3 3 - - 0.0
14/07:40pm 24.2 20.0 -10.1 9 13.2 W 6 6 3 3 - - 0.0
14/07:30pm 24.2 20.0 -10.1 9 13.2 WSW 6 6 3 3 - - 0.0
14/07:20pm 24.5 20.3 -10.4 9 13.3 WSW 6 7 3 4 - - 0.0
14/07:10pm 24.8 20.4 -10.6 9 13.5 WSW 7 7 4 4 - - 0.0
14/07:00pm 24.9 20.1 -10.6 9 13.6 WSW 9 9 5 5 - - 0.0
14/06:50pm 25.4 20.6 -10.7 8 13.9 WSW 9 11 5 6 - - 0.0
14/06:40pm 26.0 20.8 -11.2 8 14.2 WSW 11 13 6 7 - - 0.0
14/06:30pm 26.6 21.4 -11.2 7 14.6 WSW 11 15 6 8 - - 0.0
14/06:20pm 27.4 22.1 -11.9 7 15.1 WSW 11 15 6 8 - - 0.0
14/06:10pm 27.8 22.1 -12.7 6 15.4 WSW 13 15 7 8 - - 0.0
14/06:00pm 28.3 21.8 -13.1 6 15.7 WSW 17 19 9 10 - - 0.0
14/05:50pm 28.6 21.7 -13.5 5 15.9 SW 19 22 10 12 - - 0.0
14/05:40pm 28.9 21.8 -14.1 5 16.1 WSW 20 26 11 14 - - 0.0
14/05:30pm 29.2 22.2 -14.9 5 16.4 SW 19 22 10 12 - - 0.0
14/05:20pm 29.4 22.4 -15.2 4 16.5 SW 19 22 10 12 - - 0.0
14/05:10pm 29.4 22.5 -14.4 5 16.4 SW 19 22 10 12 - - 0.0
14/05:00pm 29.7 22.7 -14.7 5 16.6 WSW 19 26 10 14 - - 0.0
14/04:50pm 29.8 22.8 -14.6 5 16.7 WSW 19 22 10 12 - - 0.0
14/04:40pm 29.9 22.7 -15.0 4 16.8 WSW 20 24 11 13 - - 0.0
14/04:30pm 29.9 22.9 -14.9 4 16.7 SW 19 24 10 13 - - 0.0
14/04:20pm 30.0 22.4 -15.1 4 16.8 WSW 22 26 12 14 - - 0.0
14/04:10pm 30.0 23.0 -14.8 4 16.8 SW 19 22 10 12 - - 0.0
14/04:00pm 30.2 23.0 -15.2 4 16.9 WSW 20 26 11 14 - - 0.0
14/03:50pm 30.3 23.3 -14.8 4 17.0 WSW 19 20 10 11 - - 0.0
14/03:40pm 30.2 23.6 -15.6 4 17.0 SW 17 24 9 13 - - 0.0
14/03:30pm 30.2 22.3 -14.4 5 16.9 WSW 24 28 13 15 - - 0.0
14/03:20pm 30.3 23.7 -14.4 5 16.9 WSW 17 20 9 11 - - 0.0
14/03:10pm 30.1 23.1 -15.0 4 16.9 WSW 19 26 10 14 - - 0.0
14/03:00pm 30.1 22.9 -14.8 4 16.9 WSW 20 24 11 13 - - 0.0
14/02:50pm 30.3 23.3 -16.1 4 17.1 WSW 19 28 10 15 - - 0.0
14/02:40pm 30.3 22.7 -16.0 4 17.1 WSW 22 28 12 15 - - 0.0
14/02:30pm 30.1 23.9 -14.6 5 16.8 WSW 15 24 8 13 - - 0.0
14/02:20pm 29.9 22.4 -14.8 5 16.7 SW 22 26 12 14 - - 0.0
14/02:10pm 29.9 23.7 -14.4 5 16.7 WSW 15 20 8 11 - - 0.0
14/02:00pm 29.7 22.7 -15.1 4 16.7 W 19 22 10 12 - - 0.0
14/01:50pm 29.9 22.9 -15.1 4 16.8 WSW 19 26 10 14 - - 0.0
14/01:40pm 29.6 22.5 -17.2 4 16.8 SW 19 24 10 13 - - 0.0
14/01:30pm 29.7 23.4 -17.1 4 16.8 W 15 19 8 10 - - 0.0
14/01:20pm 29.7 22.7 -15.3 4 16.7 W 19 24 10 13 - - 0.0
14/01:10pm 29.3 22.7 -15.5 4 16.5 W 17 24 9 13 - - 0.0
14/01:00pm 29.3 23.0 -16.2 4 16.5 WSW 15 22 8 12 - - 0.0
14/12:50pm 29.2 22.6 -14.8 5 16.4 W 17 24 9 13 - - 0.0
14/12:40pm 28.9 22.3 -14.2 5 16.1 W 17 22 9 12 - - 0.0
14/12:30pm 28.9 22.4 -13.6 5 16.1 W 17 24 9 13 - - 0.0
14/12:20pm 28.8 22.7 -12.6 6 15.9 W 15 19 8 10 - - 0.0
14/12:10pm 28.9 23.1 -13.6 5 16.1 W 13 20 7 11 - - 0.0
14/12:00pm 28.5 22.4 -12.1 6 15.7 SSW 15 20 8 11 - - 0.0
14/11:50am 28.3 21.7 -14.3 5 15.8 SW 17 20 9 11 - - 0.0
14/11:40am 27.8 21.6 -15.0 5 15.6 WSW 15 19 8 10 - - 0.0
14/11:30am 27.8 21.7 -12.8 6 15.4 SW 15 19 8 10 - - 0.0
14/11:20am 27.6 21.2 -12.4 6 15.2 SSW 17 24 9 13 - - 0.0
14/11:10am 27.8 21.7 -12.3 6 15.3 SW 15 24 8 13 - - 0.0
14/11:00am 27.8 22.0 -14.1 5 15.5 SW 13 22 7 12 - - 0.0
14/10:50am 27.1 21.4 -13.3 6 15.1 SW 13 19 7 10 - - 0.0
14/10:40am 27.0 22.0 -13.8 6 15.1 S 9 19 5 10 - - 0.0
14/10:30am 26.9 21.6 -12.5 6 14.9 SW 11 17 6 9 - - 0.0
14/10:20am 26.8 22.4 -10.6 8 14.6 WSW 7 13 4 7 - - 0.0
14/10:10am 26.7 22.3 -9.7 8 14.4 W 7 11 4 6 - - 0.0
14/10:00am 26.5 22.5 -7.2 10 13.9 WNW 6 11 3 6 - - 0.0
14/09:50am 25.8 21.9 -4.2 13 13.0 WNW 7 13 4 7 - - 0.0
14/09:40am 25.5 22.1 -2.3 16 12.5 WSW 6 11 3 6 - - 0.0
14/09:30am 25.2 22.3 -1.1 17 12.0 SSW 4 9 2 5 - - 0.0
14/09:20am 24.6 21.6 -1.5 17 11.8 SSE 4 6 2 3 - - 0.0
14/09:10am 23.8 20.6 -0.6 20 11.2 NE 6 7 3 4 - - 0.0
14/09:00am 23.7 20.8 -0.8 19 11.2 ENE 4 7 2 4 - - 0.0
14/08:50am 23.1 20.4 0.5 22 10.5 NNE 4 7 2 4 - - 0.0
14/08:40am 22.7 20.5 0.8 23 10.2 E 2 4 1 2 - - 0.0
14/08:30am 21.6 19.0 0.9 25 9.6 N 4 7 2 4 - - 0.0
14/08:20am 20.9 18.1 2.0 28 8.9 NE 6 9 3 5 - - 0.0
14/08:10am 20.4 17.4 2.0 29 8.6 NE 7 9 4 5 - - 0.0
14/08:00am 19.7 16.1 0.7 28 8.6 NE 9 11 5 6 - - 0.0
14/07:50am 19.1 15.4 -3.1 22 9.3 ENE 7 7 4 4 - - 0.0
14/07:40am 18.4 14.4 -7.3 17 9.8 ENE 6 7 3 4 - - 0.0
14/07:30am 17.7 14.0 -8.4 16 9.6 NE 4 7 2 4 - - 0.0
14/07:20am 16.4 12.7 -8.7 17 9.1 ENE 4 7 2 4 - - 0.0
14/07:10am 15.5 11.4 -8.7 18 8.6 E 6 7 3 4 - - 0.0
14/07:00am 14.9 10.8 -8.4 19 8.3 E 6 6 3 3 - - 0.0
14/06:50am 14.2 10.1 -9.0 19 8.1 - 6 6 3 3 - - 0.0
14/06:40am 13.6 9.5 -9.1 20 7.9 E 6 6 3 3 - - 0.0
14/06:30am 13.1 9.4 -8.7 21 7.6 E 4 6 2 3 - - 0.0
14/06:20am 12.5 8.7 -9.2 21 7.4 ESE 4 6 2 3 - - 0.0
14/06:10am 12.3 8.5 -9.2 21 7.3 E 4 6 2 3 - - 0.0
14/06:00am 12.1 8.7 -9.2 21 7.2 E 2 4 1 2 - - 0.0
14/05:50am 11.1 7.3 -9.4 23 6.8 NNW 4 6 2 3 - - 0.0
14/05:40am 10.0 5.8 -9.9 23 6.4 NW 6 7 3 4 - - 0.0
14/05:30am 9.1 5.3 -10.2 24 6.1 NW 4 4 2 2 - - 0.0
14/05:20am 8.4 4.9 -10.5 25 5.9 NNW 2 4 1 2 - - 0.0
14/05:10am 7.9 4.9 -9.9 27 5.6 CALM 0 4 0 2 - - 0.0
14/05:00am 7.7 4.3 -10.2 27 5.6 NE 2 4 1 2 - - 0.0
14/04:50am 7.5 3.3 -9.8 28 5.4 ENE 6 7 3 4 - - 0.0
14/04:40am 7.6 3.3 -8.9 30 5.3 E 7 9 4 5 - - 0.0
14/04:30am 8.3 4.1 -7.8 31 5.4 E 7 9 4 5 - - 0.0
14/04:20am 8.7 5.1 -7.0 32 5.4 E 4 6 2 3 - - 0.0
14/04:10am 8.8 5.2 -6.9 32 5.4 - 4 4 2 2 - - 0.0
14/04:00am 8.8 5.2 -7.6 30 5.5 ESE 4 6 2 3 - - 0.0
14/03:50am 8.6 4.3 -8.5 29 5.6 E 7 9 4 5 - - 0.0
14/03:40am 8.9 4.8 -8.3 29 5.7 E 6 9 3 5 - - 0.0
14/03:30am 9.4 5.9 -6.8 31 5.6 ESE 4 6 2 3 - - 0.0
14/03:20am 10.9 7.3 -7.1 27 6.3 SSE 4 6 2 3 - - 0.0
14/03:10am 12.0 7.7 -8.6 23 7.1 SW 7 9 4 5 - - 0.0
14/03:00am 12.4 7.7 -8.9 22 7.3 WSW 9 9 5 5 - - 0.0
14/02:50am 12.4 7.7 -8.9 22 7.3 WSW 9 9 5 5 - - 0.0
14/02:40am 12.7 8.0 -8.9 21 7.4 WSW 9 9 5 5 - - 0.0
14/02:30am 13.2 8.9 -9.3 20 7.7 W 7 7 4 4 - - 0.0
14/02:20am 13.3 9.2 -9.4 19 7.8 W 6 6 3 3 - - 0.0
14/02:10am 13.5 9.1 -9.6 19 7.9 W 7 7 4 4 - - 0.0
14/02:00am 13.4 9.0 -9.7 19 7.9 WSW 7 7 4 4 - - 0.0
14/01:50am 13.7 9.5 -9.9 18 8.0 WSW 6 7 3 4 - - 0.0
14/01:40am 14.4 10.2 -9.5 18 8.3 WSW 6 7 3 4 - - 0.0
14/01:30am 14.9 10.5 -9.9 17 8.6 W 7 7 4 4 - - 0.0
14/01:20am 15.1 10.9 -9.8 17 8.6 W 6 7 3 4 - - 0.0
14/01:10am 15.2 10.5 -9.8 17 8.7 WSW 9 9 5 5 - - 0.0
14/01:00am 15.4 11.0 -10.2 16 8.8 WSW 7 9 4 5 - - 0.0
14/12:50am 15.5 11.1 -10.2 16 8.9 WSW 7 9 4 5 - - 0.0
14/12:40am 16.1 11.3 -10.3 15 9.2 WSW 9 11 5 6 - - 0.0
14/12:30am 16.6 11.4 -10.5 14 9.4 W 11 13 6 7 - - 0.0
14/12:20am 16.6 11.8 -10.5 14 9.4 W 9 11 5 6 - - 0.0
14/12:10am 16.6 12.2 -10.5 14 9.4 W 7 9 4 5 - - 0.0
14/12:00am 16.8 12.6 -10.4 14 9.5 W 6 7 3 4 - - 0.0
 
Date/Time
EST
Temp
°C
App
Temp
°C
Dew
Point
°C
Rel
Hum
%
Delta-T
°C
Wind Press
QNH
hPa
Press
MSL
hPa
Rain since
9am
mm
Dir  Spd
km/h
Gust
km/h
Spd
kts
Gust
kts
13/11:50pm 17.1 12.7 -10.8 14 9.7 W 7 9 4 5 - - 0.0
13/11:40pm 17.3 12.8 -11.4 13 9.9 W 7 7 4 4 - - 0.0
13/11:30pm 17.0 12.1 -11.5 13 9.8 WSW 9 9 5 5 - - 0.0
13/11:20pm 16.9 12.0 -11.9 13 9.8 WSW 9 9 5 5 - - 0.0
13/11:10pm 16.9 12.4 -11.7 13 9.8 WSW 7 9 4 5 - - 0.0
13/11:00pm 17.4 12.5 -11.2 13 9.9 WSW 9 9 5 5 - - 0.0
13/10:50pm 17.7 13.2 -11.6 12 10.1 WSW 7 9 4 5 - - 0.0
13/10:40pm 18.8 13.9 -11.9 11 10.7 WSW 9 9 5 5 - - 0.0
13/10:30pm 19.0 14.1 -12.6 10 10.9 WSW 9 11 5 6 - - 0.0
13/10:20pm 18.9 14.0 -12.4 11 10.8 WSW 9 11 5 6 - - 0.0
13/10:10pm 19.0 14.1 -12.6 10 10.9 WSW 9 11 5 6 - - 0.0
13/10:00pm 19.4 14.4 -13.0 10 11.1 WSW 9 11 5 6 - - 0.0
13/09:50pm 19.3 14.3 -13.1 10 11.1 WSW 9 11 5 6 - - 0.0
13/09:40pm 19.2 13.9 -13.0 10 11.0 SW 11 13 6 7 - - 0.0
13/09:30pm 19.4 14.0 -13.3 10 11.1 SW 11 13 6 7 - - 0.0
13/09:20pm 19.7 14.3 -13.4 9 11.3 SW 11 13 6 7 - - 0.0
13/09:10pm 20.2 15.2 -14.1 9 11.6 WSW 9 11 5 6 - - 0.0
13/09:00pm 20.4 15.9 -14.1 8 11.7 WSW 6 7 3 4 - - 0.0
13/08:50pm 20.6 15.9 -14.2 8 11.8 WSW 7 7 4 4 - - 0.0
13/08:40pm 20.5 15.9 -13.8 9 11.7 WSW 7 11 4 6 - - 0.0
13/08:30pm 21.3 15.9 -14.3 8 12.2 WSW 11 11 6 6 - - 0.0
13/08:20pm 21.8 16.8 -14.2 8 12.4 WSW 9 11 5 6 - - 0.0
13/08:10pm 22.2 17.2 -14.4 7 12.6 WSW 9 9 5 5 - - 0.0
13/08:00pm 22.5 17.4 -14.5 7 12.8 WSW 9 11 5 6 - - 0.0
13/07:50pm 22.9 17.1 -14.9 7 13.1 WSW 13 15 7 8 - - 0.0
13/07:40pm 23.0 17.2 -14.7 7 13.1 SW 13 15 7 8 - - 0.0
13/07:30pm 23.3 17.5 -14.5 7 13.2 SW 13 15 7 8 - - 0.0
13/07:20pm 23.5 18.1 -14.0 7 13.3 SW 11 13 6 7 - - 0.0
13/07:10pm 24.0 18.2 -14.2 7 13.5 SW 13 17 7 9 - - 0.0
13/07:00pm 24.3 18.5 -14.1 7 13.7 WSW 13 15 7 8 - - 0.0
13/06:50pm 24.9 18.7 -14.4 6 14.0 SW 15 17 8 9 - - 0.0
13/06:40pm 25.3 19.1 -15.0 6 14.3 SW 15 17 8 9 - - 0.0
13/06:30pm 25.9 18.9 -16.1 5 14.7 SW 19 20 10 11 - - 0.0
13/06:20pm 26.4 19.2 -16.2 5 15.0 SW 20 24 11 13 - - 0.0
13/06:10pm 26.9 19.3 -16.0 5 15.2 SW 22 24 12 13 - - 0.0
13/06:00pm 27.4 19.4 -17.2 4 15.6 WSW 24 30 13 16 - - 0.0
13/05:50pm 27.7 19.7 -16.8 4 15.7 SW 24 28 13 15 - - 0.0
13/05:40pm 28.1 20.4 -17.5 4 16.0 WSW 22 28 12 15 - - 0.0
13/05:30pm 28.4 20.3 -17.9 4 16.2 SW 24 26 13 14 - - 0.0
13/05:20pm 28.6 19.7 -18.8 3 16.4 WSW 28 32 15 17 - - 0.0
13/05:00pm 29.2 21.1 -19.4 3 16.7 SW 24 30 13 16 - - 0.0
13/04:50pm 29.4 20.1 -19.4 3 16.8 SW 30 35 16 19 - - 0.0
13/04:40pm 29.7 21.1 -21.3 3 17.1 SW 26 35 14 19 - - 0.0
13/10:30am 26.8 20.5 -6.0 11 13.9 W 19 26 10 14 - - 0.0
13/10:20am 26.7 19.8 -5.7 11 13.8 WSW 22 28 12 15 - - 0.0
13/10:10am 26.5 20.1 -5.3 12 13.6 WSW 20 24 11 13 - - 0.0
13/10:00am 26.2 19.4 -5.4 12 13.5 WSW 22 28 12 15 - - 0.0
13/09:50am 26.5 19.7 -5.3 12 13.6 WSW 22 26 12 14 - - 0.0
13/09:40am 26.3 19.6 -4.6 13 13.4 WSW 22 26 12 14 - - 0.0
13/09:30am 26.3 20.0 -4.0 13 13.3 WSW 20 22 11 12 - - 0.0
13/09:20am 25.4 18.8 -3.7 14 12.7 WSW 22 26 12 14 - - 0.0
13/09:10am 25.3 19.1 -3.5 14 12.6 WSW 20 26 11 14 - - 0.0
13/09:00am 24.3 18.1 -3.1 16 12.0 W 20 24 11 13 - - 0.0
13/08:50am 24.3 18.3 -2.9 16 12.0 W 19 20 10 11 - - 0.0
13/08:40am 23.9 18.3 -2.5 17 11.7 W 17 20 9 11 - - 0.0
13/08:30am 23.6 17.6 -2.8 17 11.6 WSW 19 20 10 11 - - 0.0
13/08:20am 23.2 17.0 -2.8 17 11.3 WSW 20 24 11 13 - - 0.0
13/08:10am 23.1 17.5 -2.8 17 11.3 WSW 17 24 9 13 - - 0.0
13/08:00am 22.9 17.0 -2.5 18 11.1 WSW 19 20 10 11 - - 0.0
13/07:50am 22.5 16.9 -2.7 18 10.9 W 17 17 9 9 - - 0.0
13/07:40am 22.1 16.2 -2.6 19 10.7 W 19 20 10 11 - - 0.0
13/07:30am 22.1 16.1 -2.7 19 10.7 W 19 22 10 12 - - 0.0
13/07:20am 21.8 15.7 -2.6 19 10.6 W 20 20 11 11 - - 0.0
13/07:10am 21.7 15.7 -2.7 19 10.5 WSW 19 20 10 11 - - 0.0
13/07:00am 21.7 15.5 -2.8 19 10.5 WSW 20 24 11 13 - - 0.0
13/06:50am 21.4 14.9 -2.7 19 10.4 WSW 22 24 12 13 - - 0.0
13/06:40am 21.3 14.4 -2.6 20 10.3 WSW 24 28 13 15 - - 0.0
13/06:30am 21.5 15.0 -2.3 20 10.3 WSW 22 28 12 15 - - 0.0
13/06:20am 21.4 14.9 -2.3 20 10.3 WSW 22 24 12 13 - - 0.0
13/06:10am 21.2 14.7 -2.3 20 10.2 WSW 22 26 12 14 - - 0.0
13/06:00am 21.1 15.0 -2.0 21 10.1 WSW 20 26 11 14 - - 0.0
13/05:50am 21.1 15.3 -1.8 21 10.0 WSW 19 22 10 12 - - 0.0
13/05:40am 21.1 15.3 -1.7 21 10.0 WSW 19 20 10 11 - - 0.0
13/05:30am 21.3 15.3 -1.5 21 10.0 WSW 20 24 11 13 - - 0.0
13/05:20am 21.6 15.7 -1.1 22 10.1 WSW 20 22 11 12 - - 0.0
13/05:10am 21.9 16.2 -0.5 22 10.1 WSW 19 22 10 12 - - 0.0
13/05:00am 22.2 16.6 -0.2 22 10.2 WSW 19 22 10 12 - - 0.0
13/04:50am 22.4 16.8 -0.3 22 10.3 W 19 22 10 12 - - 0.0
13/04:40am 22.6 17.3 -0.7 21 10.5 W 17 20 9 11 - - 0.0
13/04:30am 22.8 17.4 -1.1 20 10.7 W 17 19 9 10 - - 0.0
13/04:20am 23.0 17.5 -2.0 19 11.1 W 17 19 9 10 - - 0.0
13/04:10am 23.1 17.6 -2.4 18 11.2 WSW 17 20 9 11 - - 0.0
13/04:00am 23.2 17.6 -3.0 17 11.4 WSW 17 19 9 10 - - 0.0
13/03:50am 23.4 17.7 -3.4 16 11.6 WSW 17 19 9 10 - - 0.0
13/03:40am 23.6 18.3 -4.0 15 11.8 WSW 15 19 8 10 - - 0.0
13/03:30am 23.8 18.0 -4.4 15 12.0 WSW 17 17 9 9 - - 0.0
13/03:20am 24.2 18.1 -3.9 15 12.1 WSW 19 22 10 12 - - 0.0
13/03:10am 24.6 18.9 -4.0 14 12.3 W 17 20 9 11 - - 0.0
13/03:00am 24.9 19.6 -3.2 15 12.3 W 15 19 8 10 - - 0.0
13/02:50am 25.0 20.1 -3.1 15 12.4 WNW 13 15 7 8 - - 0.0
13/02:40am 24.8 20.1 -1.6 17 11.9 NW 13 17 7 9 - - 0.0
13/02:30am 24.7 20.3 0.2 20 11.5 NW 13 17 7 9 - - 0.0
13/02:20am 24.7 20.8 1.4 21 11.1 NW 11 13 6 7 - - 0.0
13/02:10am 25.1 21.7 1.7 21 11.3 W 9 11 5 6 - - 0.0
13/02:00am 25.7 21.5 1.7 21 11.6 W 13 19 7 10 - - 0.0
13/01:50am 26.5 21.9 1.8 20 12.0 W 15 19 8 10 - - 0.0
13/01:40am 27.1 22.2 2.2 20 12.3 WNW 17 22 9 12 - - 0.0
13/01:30am 27.4 21.5 2.0 19 12.5 NW 22 26 12 14 - - 0.0
13/01:20am 27.5 21.6 1.9 19 12.6 NW 22 26 12 14 - - 0.0
13/01:00am 27.6 22.2 1.1 18 12.9 NW 19 22 10 12 - - 0.0
13/12:50am 27.7 22.2 0.9 17 13.0 NW 19 24 10 13 - - 0.0
13/12:40am 27.7 22.9 0.3 17 13.1 NW 15 20 8 11 - - 0.0
13/12:30am 27.8 22.6 0.1 16 13.2 NW 17 20 9 11 - - 0.0
13/12:20am 27.8 22.5 -0.5 16 13.4 NW 17 22 9 12 - - 0.0
13/12:10am 27.0 22.2 -2.3 14 13.3 NNW 13 20 7 11 - - 0.0
13/12:00am 24.3 19.3 -3.9 15 12.2 N 13 19 7 10 - - 0.0
 
Date/Time
EST
Temp
°C
App
Temp
°C
Dew
Point
°C
Rel
Hum
%
Delta-T
°C
Wind Press
QNH
hPa
Press
MSL
hPa
Rain since
9am
mm
Dir  Spd
km/h
Gust
km/h
Spd
kts
Gust
kts
12/11:50pm 20.3 16.3 -8.0 14 10.8 NNW 6 11 3 6 - - 0.0
12/11:40pm 19.4 15.3 -8.5 14 10.5 NNE 6 7 3 4 - - 0.0
12/11:30pm 19.6 15.9 -8.2 14 10.5 ENE 4 9 2 5 - - 0.0
12/11:20pm 19.1 15.4 -8.9 14 10.4 NE 4 6 2 3 - - 0.0
12/11:10pm 19.3 15.2 -7.1 16 10.2 ENE 7 9 4 5 - - 0.0
12/11:00pm 19.3 15.4 -5.0 19 9.8 E 7 9 4 5 - - 0.0
12/10:50pm 19.0 15.2 -3.6 21 9.3 E 7 9 4 5 - - 0.0
12/10:40pm 20.1 16.6 -3.2 20 9.8 E 6 7 3 4 - - 0.0
12/10:30pm 20.4 16.8 -3.9 19 10.1 E 6 6 3 3 - - 0.0

Other formats

Comma delimited format used in spreadsheet applications
http://www.bom.gov.au/fwo/IDQ60801/IDQ60801.99122.axf

JavaScript Object Notation format (JSON) in row-major order
http://www.bom.gov.au/fwo/IDQ60801/IDQ60801.99122.json

Data quality

Most of these data are generated automatically and are frequently updated. Quality checks on data are not normally performed. It is possible for incorrect values to appear. Refer to information at About Latest Weather Observations and please check the disclaimer before using these data.